sensor_id;sensor_type;location;lat;lon;timestamp;pressure;altitude;pressure_sealevel;temperature;humidity
62632;BME280;48703;51.248;-0.546;2024-03-23T00:54:34;100881;;;5.23;92.71
62632;BME280;48703;51.248;-0.546;2024-03-23T00:57:36;100880;;;5.22;92.13
62632;BME280;48703;51.248;-0.546;2024-03-23T01:00:38;100879;;;5.22;92.97
62632;BME280;48703;51.248;-0.546;2024-03-23T01:03:40;100875;;;5.20;93.24
62632;BME280;48703;51.248;-0.546;2024-03-23T01:06:42;100874;;;5.19;92.75
62632;BME280;48703;51.248;-0.546;2024-03-23T01:09:44;100877;;;5.18;93.36
62632;BME280;48703;51.248;-0.546;2024-03-23T01:12:46;100877;;;5.18;93.40
62632;BME280;48703;51.248;-0.546;2024-03-23T01:15:48;100873;;;5.15;93.41
62632;BME280;48703;51.248;-0.546;2024-03-23T01:18:49;100873;;;5.15;93.82
62632;BME280;48703;51.248;-0.546;2024-03-23T01:21:51;100874;;;5.12;93.98
62632;BME280;48703;51.248;-0.546;2024-03-23T01:24:53;100872;;;5.08;94.39
62632;BME280;48703;51.248;-0.546;2024-03-23T01:27:55;100873;;;5.09;94.27
62632;BME280;48703;51.248;-0.546;2024-03-23T01:30:57;100873;;;5.07;94.21
62632;BME280;48703;51.248;-0.546;2024-03-23T01:33:59;100869;;;5.06;93.73
62632;BME280;48703;51.248;-0.546;2024-03-23T01:37:01;100865;;;5.05;94.53
62632;BME280;48703;51.248;-0.546;2024-03-23T01:40:03;100872;;;5.03;93.70
62632;BME280;48703;51.248;-0.546;2024-03-23T01:43:05;100875;;;5.02;94.50
62632;BME280;48703;51.248;-0.546;2024-03-23T01:46:06;100874;;;4.98;94.75
62632;BME280;48703;51.248;-0.546;2024-03-23T01:49:08;100869;;;4.96;94.63
62632;BME280;48703;51.248;-0.546;2024-03-23T01:52:10;100874;;;4.95;94.40
62632;BME280;48703;51.248;-0.546;2024-03-23T01:55:12;100874;;;4.93;94.42
62632;BME280;48703;51.248;-0.546;2024-03-23T01:58:14;100873;;;4.89;94.44
62632;BME280;48703;51.248;-0.546;2024-03-23T02:01:16;100869;;;4.87;94.63
62632;BME280;48703;51.248;-0.546;2024-03-23T02:04:17;100866;;;4.84;94.68
62632;BME280;48703;51.248;-0.546;2024-03-23T02:07:19;100864;;;4.83;95.02
62632;BME280;48703;51.248;-0.546;2024-03-23T02:10:21;100862;;;4.81;94.78
62632;BME280;48703;51.248;-0.546;2024-03-23T02:13:23;100861;;;4.80;95.28
62632;BME280;48703;51.248;-0.546;2024-03-23T02:16:25;100860;;;4.78;95.57
62632;BME280;48703;51.248;-0.546;2024-03-23T02:19:27;100858;;;4.77;94.89
62632;BME280;48703;51.248;-0.546;2024-03-23T02:22:35;100859;;;4.77;95.36
62632;BME280;48703;51.248;-0.546;2024-03-23T02:25:30;100859;;;4.75;95.14
62632;BME280;48703;51.248;-0.546;2024-03-23T02:28:32;100864;;;4.72;95.18
62632;BME280;48703;51.248;-0.546;2024-03-23T02:31:35;100863;;;4.70;95.61
62632;BME280;48703;51.248;-0.546;2024-03-23T02:34:36;100863;;;4.66;95.37
62632;BME280;48703;51.248;-0.546;2024-03-23T02:37:38;100860;;;4.63;95.33
62632;BME280;48703;51.248;-0.546;2024-03-23T02:40:40;100856;;;4.61;95.50
62632;BME280;48703;51.248;-0.546;2024-03-23T02:43:42;100858;;;4.60;95.76
62632;BME280;48703;51.248;-0.546;2024-03-23T02:46:44;100858;;;4.56;95.33
62632;BME280;48703;51.248;-0.546;2024-03-23T02:49:45;100857;;;4.54;95.55
62632;BME280;48703;51.248;-0.546;2024-03-23T02:52:47;100858;;;4.52;95.77
62632;BME280;48703;51.248;-0.546;2024-03-23T02:55:49;100858;;;4.53;95.91
62632;BME280;48703;51.248;-0.546;2024-03-23T02:58:51;100856;;;4.50;95.68
62632;BME280;48703;51.248;-0.546;2024-03-23T03:01:53;100850;;;4.49;96.26
62632;BME280;48703;51.248;-0.546;2024-03-23T03:04:55;100849;;;4.47;96.12
62632;BME280;48703;51.248;-0.546;2024-03-23T03:07:57;100849;;;4.47;96.01
62632;BME280;48703;51.248;-0.546;2024-03-23T03:10:58;100851;;;4.46;96.32
62632;BME280;48703;51.248;-0.546;2024-03-23T03:14:00;100859;;;4.43;96.21
62632;BME280;48703;51.248;-0.546;2024-03-23T03:17:02;100862;;;4.41;96.60
62632;BME280;48703;51.248;-0.546;2024-03-23T03:20:04;100864;;;4.38;96.46
62632;BME280;48703;51.248;-0.546;2024-03-23T03:23:06;100866;;;4.34;96.40
62632;BME280;48703;51.248;-0.546;2024-03-23T03:26:08;100861;;;4.31;96.57
62632;BME280;48703;51.248;-0.546;2024-03-23T03:29:10;100858;;;4.27;96.60
62632;BME280;48703;51.248;-0.546;2024-03-23T03:32:12;100855;;;4.27;97.07
62632;BME280;48703;51.248;-0.546;2024-03-23T03:35:13;100853;;;4.26;97.21
62632;BME280;48703;51.248;-0.546;2024-03-23T03:38:15;100849;;;4.25;97.02
62632;BME280;48703;51.248;-0.546;2024-03-23T03:41:18;100849;;;4.25;97.00
62632;BME280;48703;51.248;-0.546;2024-03-23T03:44:19;100849;;;4.26;97.60
62632;BME280;48703;51.248;-0.546;2024-03-23T03:47:21;100850;;;4.23;97.31
62632;BME280;48703;51.248;-0.546;2024-03-23T03:50:23;100850;;;4.24;98.28
62632;BME280;48703;51.248;-0.546;2024-03-23T03:53:25;100854;;;4.23;98.07
62632;BME280;48703;51.248;-0.546;2024-03-23T03:56:26;100847;;;4.23;97.93
62632;BME280;48703;51.248;-0.546;2024-03-23T03:59:29;100841;;;4.23;98.37
62632;BME280;48703;51.248;-0.546;2024-03-23T04:02:30;100838;;;4.23;98.05
62632;BME280;48703;51.248;-0.546;2024-03-23T04:05:32;100841;;;4.22;98.27
62632;BME280;48703;51.248;-0.546;2024-03-23T04:08:34;100841;;;4.20;98.30
62632;BME280;48703;51.248;-0.546;2024-03-23T04:11:36;100839;;;4.18;98.62
62632;BME280;48703;51.248;-0.546;2024-03-23T04:14:38;100841;;;4.16;98.97
62632;BME280;48703;51.248;-0.546;2024-03-23T04:17:40;100842;;;4.14;98.71
62632;BME280;48703;51.248;-0.546;2024-03-23T04:20:41;100844;;;4.14;98.65
62632;BME280;48703;51.248;-0.546;2024-03-23T04:23:43;100842;;;4.13;98.84
62632;BME280;48703;51.248;-0.546;2024-03-23T04:26:45;100841;;;4.12;98.89
62632;BME280;48703;51.248;-0.546;2024-03-23T04:29:47;100841;;;4.10;98.61
62632;BME280;48703;51.248;-0.546;2024-03-23T04:32:49;100841;;;4.11;98.60
62632;BME280;48703;51.248;-0.546;2024-03-23T04:35:51;100837;;;4.09;98.68
62632;BME280;48703;51.248;-0.546;2024-03-23T04:38:53;100836;;;4.08;98.86
62632;BME280;48703;51.248;-0.546;2024-03-23T04:41:55;100830;;;4.07;99.46
62632;BME280;48703;51.248;-0.546;2024-03-23T04:44:56;100824;;;4.05;99.22
62632;BME280;48703;51.248;-0.546;2024-03-23T04:47:58;100830;;;4.05;99.52
62632;BME280;48703;51.248;-0.546;2024-03-23T04:51:00;100829;;;4.02;99.38
62632;BME280;48703;51.248;-0.546;2024-03-23T04:54:02;100827;;;4.01;99.80
62632;BME280;48703;51.248;-0.546;2024-03-23T04:57:04;100825;;;4.00;99.35
62632;BME280;48703;51.248;-0.546;2024-03-23T05:00:06;100824;;;4.00;99.97
62632;BME280;48703;51.248;-0.546;2024-03-23T05:03:08;100828;;;3.99;99.72
62632;BME280;48703;51.248;-0.546;2024-03-23T05:06:09;100827;;;3.97;99.99
62632;BME280;48703;51.248;-0.546;2024-03-23T05:09:11;100831;;;3.96;99.84
62632;BME280;48703;51.248;-0.546;2024-03-23T05:12:13;100830;;;3.94;99.91
62632;BME280;48703;51.248;-0.546;2024-03-23T05:15:15;100832;;;3.95;100.00
62632;BME280;48703;51.248;-0.546;2024-03-23T05:18:17;100831;;;3.95;100.00
62632;BME280;48703;51.248;-0.546;2024-03-23T05:21:19;100829;;;3.96;99.95
62632;BME280;48703;51.248;-0.546;2024-03-23T05:24:21;100823;;;3.94;100.00
62632;BME280;48703;51.248;-0.546;2024-03-23T05:27:23;100814;;;3.93;100.00
62632;BME280;48703;51.248;-0.546;2024-03-23T05:30:24;100809;;;3.93;99.99
62632;BME280;48703;51.248;-0.546;2024-03-23T05:33:26;100813;;;3.92;100.00
62632;BME280;48703;51.248;-0.546;2024-03-23T05:36:28;100809;;;3.91;99.78
62632;BME280;48703;51.248;-0.546;2024-03-23T05:39:30;100808;;;3.92;99.96
62632;BME280;48703;51.248;-0.546;2024-03-23T05:42:32;100810;;;3.91;99.83
62632;BME280;48703;51.248;-0.546;2024-03-23T05:45:34;100809;;;3.90;100.00
62632;BME280;48703;51.248;-0.546;2024-03-23T05:48:36;100805;;;3.90;100.00
62632;BME280;48703;51.248;-0.546;2024-03-23T05:51:37;100806;;;3.91;99.95
62632;BME280;48703;51.248;-0.546;2024-03-23T05:54:39;100801;;;3.90;99.97
62632;BME280;48703;51.248;-0.546;2024-03-23T05:57:41;100797;;;3.90;100.00
62632;BME280;48703;51.248;-0.546;2024-03-23T06:00:43;100797;;;3.89;100.00
62632;BME280;48703;51.248;-0.546;2024-03-23T06:03:45;100798;;;3.89;100.00
62632;BME280;48703;51.248;-0.546;2024-03-23T06:06:47;100792;;;3.89;100.00
62632;BME280;48703;51.248;-0.546;2024-03-23T06:09:49;100790;;;3.89;100.00
62632;BME280;48703;51.248;-0.546;2024-03-23T06:12:50;100789;;;3.89;100.00
62632;BME280;48703;51.248;-0.546;2024-03-23T06:15:52;100783;;;3.91;100.00
62632;BME280;48703;51.248;-0.546;2024-03-23T06:18:54;100788;;;3.91;100.00
62632;BME280;48703;51.248;-0.546;2024-03-23T06:21:56;100788;;;3.92;100.00
62632;BME280;48703;51.248;-0.546;2024-03-23T06:24:58;100784;;;3.92;100.00
62632;BME280;48703;51.248;-0.546;2024-03-23T06:28:00;100778;;;3.92;100.00
62632;BME280;48703;51.248;-0.546;2024-03-23T06:31:02;100779;;;3.93;100.00
62632;BME280;48703;51.248;-0.546;2024-03-23T06:34:04;100780;;;3.93;100.00
62632;BME280;48703;51.248;-0.546;2024-03-23T06:37:05;100780;;;3.94;100.00
62632;BME280;48703;51.248;-0.546;2024-03-23T06:40:08;100780;;;3.96;100.00
62632;BME280;48703;51.248;-0.546;2024-03-23T06:43:09;100777;;;3.96;100.00
62632;BME280;48703;51.248;-0.546;2024-03-23T06:46:11;100779;;;3.96;100.00
62632;BME280;48703;51.248;-0.546;2024-03-23T06:49:13;100771;;;3.98;100.00
62632;BME280;48703;51.248;-0.546;2024-03-23T06:52:15;100770;;;4.01;100.00
62632;BME280;48703;51.248;-0.546;2024-03-23T06:55:17;100774;;;4.03;100.00
62632;BME280;48703;51.248;-0.546;2024-03-23T06:58:19;100775;;;4.05;100.00
62632;BME280;48703;51.248;-0.546;2024-03-23T07:01:20;100774;;;4.08;100.00
62632;BME280;48703;51.248;-0.546;2024-03-23T07:04:22;100778;;;4.11;99.79
62632;BME280;48703;51.248;-0.546;2024-03-23T07:07:24;100769;;;4.15;99.94
62632;BME280;48703;51.248;-0.546;2024-03-23T07:10:26;100764;;;4.18;99.62
62632;BME280;48703;51.248;-0.546;2024-03-23T07:13:28;100763;;;4.21;99.12
62632;BME280;48703;51.248;-0.546;2024-03-23T07:16:30;100766;;;4.25;99.36
62632;BME280;48703;51.248;-0.546;2024-03-23T07:19:32;100763;;;4.29;98.76
62632;BME280;48703;51.248;-0.546;2024-03-23T07:22:33;100770;;;4.33;98.32
62632;BME280;48703;51.248;-0.546;2024-03-23T07:25:35;100772;;;4.38;98.37
62632;BME280;48703;51.248;-0.546;2024-03-23T07:28:37;100772;;;4.44;98.48
62632;BME280;48703;51.248;-0.546;2024-03-23T07:31:39;100765;;;4.49;97.61
62632;BME280;48703;51.248;-0.546;2024-03-23T07:34:41;100762;;;4.55;97.31
62632;BME280;48703;51.248;-0.546;2024-03-23T07:37:43;100764;;;4.60;97.43
62632;BME280;48703;51.248;-0.546;2024-03-23T07:40:45;100759;;;4.66;96.74
62632;BME280;48703;51.248;-0.546;2024-03-23T07:43:47;100762;;;4.72;96.68
62632;BME280;48703;51.248;-0.546;2024-03-23T07:46:48;100758;;;4.77;96.62
62632;BME280;48703;51.248;-0.546;2024-03-23T07:49:50;100751;;;4.82;95.68
62632;BME280;48703;51.248;-0.546;2024-03-23T07:52:52;100746;;;4.87;96.03
62632;BME280;48703;51.248;-0.546;2024-03-23T07:55:54;100743;;;4.92;96.45
62632;BME280;48703;51.248;-0.546;2024-03-23T07:58:56;100741;;;4.98;95.32
62632;BME280;48703;51.248;-0.546;2024-03-23T08:01:58;100740;;;5.03;94.99
62632;BME280;48703;51.248;-0.546;2024-03-23T08:04:59;100741;;;5.08;94.90
62632;BME280;48703;51.248;-0.546;2024-03-23T08:08:01;100739;;;5.13;93.66
62632;BME280;48703;51.248;-0.546;2024-03-23T08:11:03;100741;;;5.19;93.67
62632;BME280;48703;51.248;-0.546;2024-03-23T08:14:05;100741;;;5.24;92.38
62632;BME280;48703;51.248;-0.546;2024-03-23T08:17:07;100740;;;5.27;93.80
62632;BME280;48703;51.248;-0.546;2024-03-23T08:20:09;100746;;;5.32;92.50
62632;BME280;48703;51.248;-0.546;2024-03-23T08:23:11;100745;;;5.40;91.09
62632;BME280;48703;51.248;-0.546;2024-03-23T08:26:15;100740;;;5.45;91.03
62632;BME280;48703;51.248;-0.546;2024-03-23T08:29:15;100742;;;5.49;90.58
62632;BME280;48703;51.248;-0.546;2024-03-23T08:32:16;100740;;;5.54;89.48
62632;BME280;48703;51.248;-0.546;2024-03-23T08:35:18;100732;;;5.54;91.07
62632;BME280;48703;51.248;-0.546;2024-03-23T08:38:20;100731;;;5.55;91.42
62632;BME280;48703;51.248;-0.546;2024-03-23T08:41:22;100734;;;5.60;90.55
62632;BME280;48703;51.248;-0.546;2024-03-23T08:44:24;100733;;;5.67;90.26
62632;BME280;48703;51.248;-0.546;2024-03-23T08:47:26;100731;;;5.71;90.39
62632;BME280;48703;51.248;-0.546;2024-03-23T08:50:28;100727;;;5.77;90.65
62632;BME280;48703;51.248;-0.546;2024-03-23T08:53:30;100718;;;5.82;90.36
62632;BME280;48703;51.248;-0.546;2024-03-23T08:56:31;100715;;;5.88;88.88
62632;BME280;48703;51.248;-0.546;2024-03-23T08:59:33;100710;;;5.89;88.49
62632;BME280;48703;51.248;-0.546;2024-03-23T09:02:35;100705;;;5.91;88.41
62632;BME280;48703;51.248;-0.546;2024-03-23T09:05:38;100705;;;5.95;88.97
62632;BME280;48703;51.248;-0.546;2024-03-23T09:08:39;100702;;;6.03;87.01
62632;BME280;48703;51.248;-0.546;2024-03-23T09:11:41;100694;;;6.10;87.87
62632;BME280;48703;51.248;-0.546;2024-03-23T09:14:42;100687;;;6.15;89.07
62632;BME280;48703;51.248;-0.546;2024-03-23T09:17:44;100690;;;6.20;88.90
62632;BME280;48703;51.248;-0.546;2024-03-23T09:20:46;100678;;;6.26;88.47
62632;BME280;48703;51.248;-0.546;2024-03-23T09:23:48;100676;;;6.32;86.39
62632;BME280;48703;51.248;-0.546;2024-03-23T09:26:51;100676;;;6.40;87.15
62632;BME280;48703;51.248;-0.546;2024-03-23T09:29:52;100669;;;6.48;87.32
62632;BME280;48703;51.248;-0.546;2024-03-23T09:32:54;100667;;;6.55;87.41
62632;BME280;48703;51.248;-0.546;2024-03-23T09:35:56;100664;;;6.65;84.64
62632;BME280;48703;51.248;-0.546;2024-03-23T09:38:57;100665;;;6.70;84.45
62632;BME280;48703;51.248;-0.546;2024-03-23T09:41:59;100662;;;6.75;82.75
62632;BME280;48703;51.248;-0.546;2024-03-23T09:45:01;100658;;;6.83;81.52
62632;BME280;48703;51.248;-0.546;2024-03-23T09:48:03;100655;;;6.96;80.86
62632;BME280;48703;51.248;-0.546;2024-03-23T09:51:05;100655;;;7.10;81.09
62632;BME280;48703;51.248;-0.546;2024-03-23T09:54:07;100657;;;7.20;77.68
62632;BME280;48703;51.248;-0.546;2024-03-23T09:57:09;100653;;;7.36;73.60
62632;BME280;48703;51.248;-0.546;2024-03-23T10:00:11;100647;;;7.44;74.99
62632;BME280;48703;51.248;-0.546;2024-03-23T10:03:12;100642;;;7.52;75.58
62632;BME280;48703;51.248;-0.546;2024-03-23T10:06:14;100642;;;7.52;74.89
62632;BME280;48703;51.248;-0.546;2024-03-23T10:09:16;100649;;;7.55;70.45
62632;BME280;48703;51.248;-0.546;2024-03-23T10:12:18;100637;;;7.58;71.79
62632;BME280;48703;51.248;-0.546;2024-03-23T10:15:21;100631;;;7.61;72.17
62632;BME280;48703;51.248;-0.546;2024-03-23T10:18:22;100627;;;7.65;71.51
62632;BME280;48703;51.248;-0.546;2024-03-23T10:21:24;100628;;;7.70;70.73
62632;BME280;48703;51.248;-0.546;2024-03-23T10:24:25;100622;;;7.70;70.62
62632;BME280;48703;51.248;-0.546;2024-03-23T10:27:27;100624;;;7.76;70.40
62632;BME280;48703;51.248;-0.546;2024-03-23T10:30:29;100626;;;7.85;67.96
62632;BME280;48703;51.248;-0.546;2024-03-23T10:33:31;100627;;;7.90;69.56
62632;BME280;48703;51.248;-0.546;2024-03-23T10:36:33;100617;;;7.96;70.92
62632;BME280;48703;51.248;-0.546;2024-03-23T10:39:35;100622;;;8.00;70.09
62632;BME280;48703;51.248;-0.546;2024-03-23T10:42:37;100613;;;8.08;67.74
62632;BME280;48703;51.248;-0.546;2024-03-23T10:45:38;100605;;;8.21;67.98
62632;BME280;48703;51.248;-0.546;2024-03-23T10:48:40;100609;;;8.36;67.48
62632;BME280;48703;51.248;-0.546;2024-03-23T10:51:42;100598;;;8.48;67.59
62632;BME280;48703;51.248;-0.546;2024-03-23T10:54:44;100593;;;8.57;69.02
62632;BME280;48703;51.248;-0.546;2024-03-23T10:57:48;100590;;;8.67;67.94
62632;BME280;48703;51.248;-0.546;2024-03-23T11:00:48;100588;;;8.70;66.72
62632;BME280;48703;51.248;-0.546;2024-03-23T11:03:51;100576;;;8.79;66.40
62632;BME280;48703;51.248;-0.546;2024-03-23T11:06:52;100573;;;8.87;63.05
62632;BME280;48703;51.248;-0.546;2024-03-23T11:09:54;100559;;;8.85;64.32
62632;BME280;48703;51.248;-0.546;2024-03-23T11:12:55;100558;;;8.90;64.39
62632;BME280;48703;51.248;-0.546;2024-03-23T11:15:59;100556;;;8.93;64.05
62632;BME280;48703;51.248;-0.546;2024-03-23T11:19:33;100555;;;8.94;62.83
62632;BME280;48703;51.248;-0.546;2024-03-23T11:22:01;100550;;;8.94;61.85
62632;BME280;48703;51.248;-0.546;2024-03-23T11:25:03;100553;;;8.98;61.31
62632;BME280;48703;51.248;-0.546;2024-03-23T11:28:10;100542;;;9.03;60.55
62632;BME280;48703;51.248;-0.546;2024-03-23T11:31:09;100542;;;9.06;60.39
62632;BME280;48703;51.248;-0.546;2024-03-23T11:34:08;100536;;;9.13;59.88
62632;BME280;48703;51.248;-0.546;2024-03-23T11:37:10;100534;;;9.14;60.28
62632;BME280;48703;51.248;-0.546;2024-03-23T11:40:19;100533;;;9.14;61.59
62632;BME280;48703;51.248;-0.546;2024-03-23T11:43:15;100543;;;9.09;61.75
62632;BME280;48703;51.248;-0.546;2024-03-23T11:46:21;100535;;;9.08;61.70
62632;BME280;48703;51.248;-0.546;2024-03-23T11:49:19;100526;;;9.08;64.26
62632;BME280;48703;51.248;-0.546;2024-03-23T11:52:20;100526;;;9.04;66.59
62632;BME280;48703;51.248;-0.546;2024-03-23T11:55:22;100520;;;9.01;68.34
62632;BME280;48703;51.248;-0.546;2024-03-23T11:58:24;100517;;;9.06;69.73
62632;BME280;48703;51.248;-0.546;2024-03-23T12:01:25;100515;;;9.11;68.71
62632;BME280;48703;51.248;-0.546;2024-03-23T12:04:27;100510;;;9.13;69.35
62632;BME280;48703;51.248;-0.546;2024-03-23T12:07:29;100506;;;9.15;70.55
62632;BME280;48703;51.248;-0.546;2024-03-23T12:10:31;100510;;;9.16;69.10
62632;BME280;48703;51.248;-0.546;2024-03-23T12:13:33;100519;;;9.14;69.65
62632;BME280;48703;51.248;-0.546;2024-03-23T12:16:35;100544;;;9.03;69.86
62632;BME280;48703;51.248;-0.546;2024-03-23T12:19:36;100560;;;8.85;76.49
62632;BME280;48703;51.248;-0.546;2024-03-23T12:22:38;100541;;;8.60;78.20
62632;BME280;48703;51.248;-0.546;2024-03-23T12:25:40;100531;;;8.45;79.22
62632;BME280;48703;51.248;-0.546;2024-03-23T12:28:42;100529;;;8.30;80.73
62632;BME280;48703;51.248;-0.546;2024-03-23T12:31:44;100522;;;8.22;80.89
62632;BME280;48703;51.248;-0.546;2024-03-23T12:34:46;100516;;;8.26;81.48
62632;BME280;48703;51.248;-0.546;2024-03-23T12:37:48;100508;;;8.27;82.50
62632;BME280;48703;51.248;-0.546;2024-03-23T12:40:50;100501;;;8.29;83.72
62632;BME280;48703;51.248;-0.546;2024-03-23T12:43:51;100492;;;8.36;83.97
62632;BME280;48703;51.248;-0.546;2024-03-23T12:46:53;100482;;;8.43;83.59
62632;BME280;48703;51.248;-0.546;2024-03-23T12:49:55;100473;;;8.55;84.18
62632;BME280;48703;51.248;-0.546;2024-03-23T12:52:57;100469;;;8.68;84.49
62632;BME280;48703;51.248;-0.546;2024-03-23T12:55:59;100458;;;8.75;83.44
62632;BME280;48703;51.248;-0.546;2024-03-23T12:59:01;100453;;;8.83;83.38
62632;BME280;48703;51.248;-0.546;2024-03-23T13:02:03;100451;;;8.85;81.04
62632;BME280;48703;51.248;-0.546;2024-03-23T13:05:05;100444;;;8.87;80.93
62632;BME280;48703;51.248;-0.546;2024-03-23T13:08:06;100445;;;8.84;81.57
62632;BME280;48703;51.248;-0.546;2024-03-23T13:11:08;100438;;;8.82;80.69
62632;BME280;48703;51.248;-0.546;2024-03-23T13:14:10;100448;;;8.70;78.63
62632;BME280;48703;51.248;-0.546;2024-03-23T13:17:12;100464;;;8.61;83.17
62632;BME280;48703;51.248;-0.546;2024-03-23T13:20:14;100493;;;8.47;83.46
62632;BME280;48703;51.248;-0.546;2024-03-23T13:23:16;100520;;;8.16;80.80
62632;BME280;48703;51.248;-0.546;2024-03-23T13:26:18;100517;;;7.73;81.92
62632;BME280;48703;51.248;-0.546;2024-03-23T13:29:20;100503;;;7.50;84.93
62632;BME280;48703;51.248;-0.546;2024-03-23T13:32:21;100510;;;7.35;86.91
62632;BME280;48703;51.248;-0.546;2024-03-23T13:35:23;100510;;;7.34;89.60
62632;BME280;48703;51.248;-0.546;2024-03-23T13:38:25;100499;;;7.13;91.34
62632;BME280;48703;51.248;-0.546;2024-03-23T13:41:28;100489;;;6.99;94.66
62632;BME280;48703;51.248;-0.546;2024-03-23T13:44:29;100485;;;6.93;94.02
62632;BME280;48703;51.248;-0.546;2024-03-23T13:47:31;100485;;;6.97;97.58
62632;BME280;48703;51.248;-0.546;2024-03-23T13:50:33;100477;;;6.95;98.02
62632;BME280;48703;51.248;-0.546;2024-03-23T13:53:35;100473;;;7.03;99.57
62632;BME280;48703;51.248;-0.546;2024-03-23T13:56:36;100479;;;7.04;98.10
62632;BME280;48703;51.248;-0.546;2024-03-23T13:59:38;100479;;;6.97;99.29
62632;BME280;48703;51.248;-0.546;2024-03-23T14:02:40;100487;;;6.85;99.57
62632;BME280;48703;51.248;-0.546;2024-03-23T14:05:42;100479;;;6.75;99.07
62632;BME280;48703;51.248;-0.546;2024-03-23T14:08:44;100447;;;6.59;97.90
62632;BME280;48703;51.248;-0.546;2024-03-23T14:11:47;100462;;;6.60;99.94
62632;BME280;48703;51.248;-0.546;2024-03-23T14:14:47;100456;;;6.55;99.73
62632;BME280;48703;51.248;-0.546;2024-03-23T14:17:49;100450;;;6.51;99.67
62632;BME280;48703;51.248;-0.546;2024-03-23T14:20:51;100448;;;6.49;97.64
62632;BME280;48703;51.248;-0.546;2024-03-23T14:23:53;100438;;;6.47;97.22
62632;BME280;48703;51.248;-0.546;2024-03-23T14:26:55;100425;;;6.41;96.19
62632;BME280;48703;51.248;-0.546;2024-03-23T14:29:57;100424;;;6.40;95.38
62632;BME280;48703;51.248;-0.546;2024-03-23T14:32:59;100433;;;6.36;95.86
62632;BME280;48703;51.248;-0.546;2024-03-23T14:36:00;100433;;;6.35;93.85
62632;BME280;48703;51.248;-0.546;2024-03-23T14:39:02;100426;;;6.50;95.00
62632;BME280;48703;51.248;-0.546;2024-03-23T14:42:05;100426;;;6.71;93.45
62632;BME280;48703;51.248;-0.546;2024-03-23T14:45:06;100428;;;6.94;94.41
62632;BME280;48703;51.248;-0.546;2024-03-23T14:48:08;100428;;;7.09;91.70
62632;BME280;48703;51.248;-0.546;2024-03-23T14:51:10;100424;;;7.28;92.58
62632;BME280;48703;51.248;-0.546;2024-03-23T14:54:12;100416;;;7.48;94.46
62632;BME280;48703;51.248;-0.546;2024-03-23T14:57:14;100409;;;7.62;91.69
62632;BME280;48703;51.248;-0.546;2024-03-23T15:00:16;100402;;;7.80;94.75
62632;BME280;48703;51.248;-0.546;2024-03-23T15:03:17;100401;;;7.84;88.44
62632;BME280;48703;51.248;-0.546;2024-03-23T15:06:19;100402;;;7.97;87.06
62632;BME280;48703;51.248;-0.546;2024-03-23T15:09:21;100391;;;8.00;87.12
62632;BME280;48703;51.248;-0.546;2024-03-23T15:12:23;100389;;;8.13;87.02
62632;BME280;48703;51.248;-0.546;2024-03-23T15:15:25;100383;;;8.17;85.00
62632;BME280;48703;51.248;-0.546;2024-03-23T15:18:27;100386;;;8.29;84.69
62632;BME280;48703;51.248;-0.546;2024-03-23T15:21:29;100385;;;8.32;83.07
62632;BME280;48703;51.248;-0.546;2024-03-23T15:24:31;100388;;;8.37;82.94
62632;BME280;48703;51.248;-0.546;2024-03-23T15:27:32;100393;;;8.54;84.37
62632;BME280;48703;51.248;-0.546;2024-03-23T15:30:34;100390;;;8.68;80.94
62632;BME280;48703;51.248;-0.546;2024-03-23T15:33:41;100397;;;8.86;81.17
62632;BME280;48703;51.248;-0.546;2024-03-23T15:36:38;100402;;;8.92;79.15
62632;BME280;48703;51.248;-0.546;2024-03-23T15:39:40;100396;;;8.96;80.43
62632;BME280;48703;51.248;-0.546;2024-03-23T15:42:42;100390;;;8.97;78.04
62632;BME280;48703;51.248;-0.546;2024-03-23T15:45:44;100389;;;8.97;78.41
62632;BME280;48703;51.248;-0.546;2024-03-23T15:48:45;100398;;;8.94;77.03
62632;BME280;48703;51.248;-0.546;2024-03-23T15:51:47;100389;;;8.98;78.05
62632;BME280;48703;51.248;-0.546;2024-03-23T15:54:49;100393;;;9.12;76.84
62632;BME280;48703;51.248;-0.546;2024-03-23T15:57:51;100395;;;9.15;74.32
62632;BME280;48703;51.248;-0.546;2024-03-23T16:00:54;100391;;;9.09;72.48
62632;BME280;48703;51.248;-0.546;2024-03-23T16:03:55;100389;;;9.04;71.71
62632;BME280;48703;51.248;-0.546;2024-03-23T16:06:56;100388;;;9.04;73.29
62632;BME280;48703;51.248;-0.546;2024-03-23T16:09:58;100391;;;9.01;69.36
62632;BME280;48703;51.248;-0.546;2024-03-23T16:13:00;100394;;;8.93;65.56
62632;BME280;48703;51.248;-0.546;2024-03-23T16:16:03;100400;;;8.96;65.91
62632;BME280;48703;51.248;-0.546;2024-03-23T16:19:04;100398;;;9.05;68.75
62632;BME280;48703;51.248;-0.546;2024-03-23T16:22:06;100395;;;9.07;65.87
62632;BME280;48703;51.248;-0.546;2024-03-23T16:25:08;100394;;;9.04;66.12
62632;BME280;48703;51.248;-0.546;2024-03-23T16:28:10;100394;;;9.09;66.87
62632;BME280;48703;51.248;-0.546;2024-03-23T16:31:11;100392;;;9.10;66.91
62632;BME280;48703;51.248;-0.546;2024-03-23T16:34:13;100394;;;9.06;65.49
62632;BME280;48703;51.248;-0.546;2024-03-23T16:37:15;100386;;;9.02;65.79
62632;BME280;48703;51.248;-0.546;2024-03-23T16:40:17;100392;;;8.92;65.60
62632;BME280;48703;51.248;-0.546;2024-03-23T16:43:19;100392;;;8.85;66.19
62632;BME280;48703;51.248;-0.546;2024-03-23T16:46:21;100392;;;8.78;65.80
62632;BME280;48703;51.248;-0.546;2024-03-23T16:49:23;100393;;;8.80;65.88
62632;BME280;48703;51.248;-0.546;2024-03-23T16:52:25;100397;;;8.72;65.77
62632;BME280;48703;51.248;-0.546;2024-03-23T16:55:26;100401;;;8.65;66.17
62632;BME280;48703;51.248;-0.546;2024-03-23T16:58:29;100403;;;8.58;66.41
62632;BME280;48703;51.248;-0.546;2024-03-23T17:01:30;100399;;;8.54;67.25
62632;BME280;48703;51.248;-0.546;2024-03-23T17:04:32;100394;;;8.51;67.66
62632;BME280;48703;51.248;-0.546;2024-03-23T17:07:34;100392;;;8.48;68.14
62632;BME280;48703;51.248;-0.546;2024-03-23T17:10:36;100392;;;8.48;69.90
62632;BME280;48703;51.248;-0.546;2024-03-23T17:13:38;100393;;;8.44;68.82
62632;BME280;48703;51.248;-0.546;2024-03-23T17:16:39;100391;;;8.37;69.31
62632;BME280;48703;51.248;-0.546;2024-03-23T17:19:41;100395;;;8.34;70.19